createdAt,value
2019-02-09T10:39:27.272Z,1.75
2019-02-09T10:42:04.614Z,1.70
2019-02-09T10:44:33.810Z,1.92
2019-02-09T10:47:03.267Z,1.20
2019-02-09T10:49:32.328Z,2.27
2019-02-09T10:52:01.840Z,1.67
2019-02-09T10:54:30.946Z,1.60
2019-02-09T10:57:00.340Z,1.50
2019-02-09T10:59:29.408Z,1.20
2019-02-09T11:01:59.004Z,2.37
2019-02-09T11:04:29.073Z,1.30
2019-02-09T11:06:58.198Z,1.87
2019-02-09T11:09:27.344Z,1.57
2019-02-09T11:11:56.808Z,1.57
2019-02-09T11:14:25.966Z,1.77
2019-02-09T11:16:55.123Z,2.17
2019-02-09T11:19:24.385Z,1.70
2019-02-09T11:21:53.492Z,1.50
2019-02-09T11:24:22.656Z,1.53
2019-02-09T11:26:52.974Z,1.83
2019-02-09T11:29:23.468Z,1.40
2019-02-09T11:34:28.119Z,1.50
2019-02-09T11:36:57.110Z,1.30
2019-02-09T11:39:26.308Z,1.20
2019-02-09T11:41:55.518Z,1.80
2019-02-09T11:44:24.724Z,1.10
2019-02-09T11:46:54.650Z,1.30
2019-02-09T11:49:23.610Z,1.50
2019-02-09T11:51:52.921Z,1.23
2019-02-09T11:54:22.447Z,1.37
2019-02-09T11:56:51.484Z,1.30
2019-02-09T11:59:21.335Z,1.50
2019-02-09T12:01:49.941Z,1.20
2019-02-09T12:04:19.236Z,1.30
2019-02-09T12:06:51.740Z,1.23
2019-02-09T12:09:21.092Z,1.90
2019-02-09T12:11:52.432Z,1.00
2019-02-09T12:14:21.502Z,1.20
2019-02-09T12:16:50.753Z,1.60
2019-02-09T12:19:19.984Z,1.27
2019-02-09T12:21:49.304Z,1.73
2019-02-09T12:24:19.379Z,1.70
2019-02-09T12:26:48.866Z,1.60
2019-02-09T12:29:17.957Z,1.20
2019-02-09T12:31:48.626Z,1.60
2019-02-09T12:34:19.108Z,1.30
2019-02-09T12:36:59.652Z,1.63
2019-02-09T12:39:28.854Z,1.50
2019-02-09T12:41:58.123Z,1.30
2019-02-09T12:44:27.348Z,1.20
2019-02-09T12:46:56.661Z,1.33
2019-02-09T12:49:25.814Z,1.70
2019-02-09T12:51:55.092Z,1.20
2019-02-09T12:54:24.338Z,1.00
2019-02-09T12:56:53.358Z,1.00
2019-02-09T12:59:22.707Z,1.00
2019-02-09T13:01:51.748Z,1.00
2019-02-09T13:04:20.929Z,1.37
2019-02-09T13:06:50.161Z,1.23
2019-02-09T13:09:19.266Z,1.03
2019-02-09T13:11:48.554Z,1.30
2019-02-09T13:14:17.709Z,1.20
2019-02-09T13:16:47.082Z,1.60
2019-02-09T13:19:16.660Z,2.03
2019-02-09T13:21:45.754Z,1.20
2019-02-09T13:24:15.990Z,1.17
2019-02-09T13:26:46.396Z,1.13
2019-02-09T13:29:16.277Z,0.97
2019-02-09T13:31:45.383Z,1.10
2019-02-09T13:34:14.780Z,1.00
2019-02-09T13:36:43.950Z,1.40
2019-02-09T13:39:13.308Z,1.00
2019-02-09T13:41:44.207Z,1.33
2019-02-09T13:44:13.619Z,1.90
2019-02-09T13:46:43.780Z,1.40
2019-02-09T13:49:13.563Z,1.27
2019-02-09T13:51:43.006Z,1.30
2019-02-09T13:54:13.679Z,0.87
2019-02-09T13:56:50.174Z,1.43
2019-02-09T13:59:19.692Z,1.30
2019-02-09T14:01:49.050Z,1.23
2019-02-09T14:04:19.260Z,1.37
2019-02-09T14:06:48.560Z,2.00
2019-02-09T14:09:17.622Z,1.50
2019-02-09T14:11:46.932Z,1.67
2019-02-09T14:14:16.544Z,1.60
2019-02-09T14:16:46.313Z,2.23
2019-02-09T14:19:15.876Z,1.80
2019-02-09T14:21:45.060Z,1.90
2019-02-09T14:24:14.193Z,1.30
2019-02-09T14:26:43.336Z,1.20
2019-02-09T14:29:12.567Z,1.23
2019-02-09T14:31:41.659Z,1.27
2019-02-09T14:34:10.868Z,1.40
2019-02-09T14:36:40.078Z,1.47
2019-02-09T14:39:11.187Z,1.10
2019-02-09T14:41:40.656Z,1.60
2019-02-09T14:44:09.782Z,1.40
2019-02-09T14:46:40.032Z,1.47
2019-02-09T14:49:08.620Z,1.40
2019-02-09T14:51:37.696Z,1.57
2019-02-09T14:54:07.230Z,1.30
2019-02-09T14:56:36.332Z,1.07
2019-02-09T14:59:05.450Z,1.40
2019-02-09T15:01:34.430Z,1.40
2019-02-09T15:04:03.902Z,1.80
2019-02-09T15:06:33.860Z,1.47
2019-02-09T15:09:03.466Z,2.20
2019-02-09T15:11:33.052Z,1.90
2019-02-09T15:14:03.520Z,1.47
2019-02-09T15:16:48.043Z,1.33
2019-02-09T15:19:19.288Z,1.50
2019-02-09T15:21:49.954Z,1.80
2019-02-09T15:24:21.847Z,2.17
2019-02-09T15:26:52.613Z,1.90
2019-02-09T15:29:22.311Z,1.83
2019-02-09T15:31:52.976Z,2.20
2019-02-09T15:34:22.232Z,1.70
2019-02-09T15:36:51.557Z,1.60
2019-02-09T15:39:21.578Z,1.83
2019-02-09T15:41:52.047Z,1.73
2019-02-09T15:44:21.496Z,2.60
2019-02-09T15:46:50.862Z,2.70
2019-02-09T15:49:20.699Z,2.47
2019-02-09T15:51:49.875Z,2.87
2019-02-09T15:54:20.047Z,1.90
2019-02-09T15:56:49.522Z,2.03
2019-02-09T15:59:19.096Z,1.73
2019-02-09T16:01:48.370Z,3.70
2019-02-09T16:04:18.275Z,2.20
2019-02-09T16:06:46.836Z,2.80
2019-02-09T16:09:16.453Z,2.20
2019-02-09T16:11:45.986Z,2.03
2019-02-09T16:14:15.104Z,2.50
2019-02-09T16:16:44.432Z,1.83
2019-02-09T16:19:13.988Z,2.23
2019-02-09T16:21:43.424Z,2.20
2019-02-09T16:24:13.227Z,1.70
2019-02-09T16:26:42.996Z,1.60
2019-02-09T16:29:12.548Z,1.63
2019-02-09T16:31:41.918Z,1.27
2019-02-09T16:34:11.039Z,1.80
2019-02-09T16:36:40.831Z,1.70
2019-02-09T16:39:11.632Z,1.90
2019-02-09T16:41:41.080Z,1.97
2019-02-09T16:44:10.362Z,1.50
2019-02-09T16:46:39.669Z,2.13
2019-02-09T16:49:09.373Z,2.63
2019-02-09T16:51:38.768Z,2.53
2019-02-09T16:54:08.624Z,2.20
2019-02-09T16:56:38.386Z,1.70
2019-02-09T16:59:08.008Z,2.73
2019-02-09T17:01:37.288Z,2.03
2019-02-09T17:04:06.576Z,2.10
2019-02-09T17:06:37.182Z,2.43
2019-02-09T17:09:08.666Z,2.00
2019-02-09T17:11:42.120Z,2.40
2019-02-09T17:14:11.456Z,2.23
2019-02-09T17:16:40.504Z,1.80
2019-02-09T17:19:09.607Z,1.80
2019-02-09T17:21:38.989Z,2.30
2019-02-09T17:24:08.248Z,1.93
2019-02-09T17:26:37.399Z,1.63
2019-02-09T17:29:07.004Z,1.73
2019-02-09T17:31:36.008Z,2.17
2019-02-09T17:34:05.320Z,1.93
2019-02-09T17:36:35.910Z,1.90
2019-02-09T17:39:06.700Z,1.90
2019-02-09T17:41:38.116Z,1.93
2019-02-09T17:44:08.696Z,2.50
2019-02-09T17:46:37.670Z,2.50
2019-02-09T17:49:07.498Z,3.20
2019-02-09T17:51:36.968Z,3.07
2019-02-09T17:54:07.064Z,1.97
2019-02-09T17:56:36.137Z,2.47
2019-02-09T17:59:06.590Z,2.33
2019-02-09T18:01:36.021Z,2.20
2019-02-09T18:04:05.218Z,2.87
2019-02-09T18:06:34.332Z,2.27
2019-02-09T18:09:04.149Z,2.50
2019-02-09T18:11:33.387Z,2.00
2019-02-09T18:14:02.643Z,2.10
2019-02-09T18:16:32.382Z,2.43
2019-02-09T18:19:01.422Z,2.07
2019-02-09T18:21:30.764Z,2.20
2019-02-09T18:23:59.830Z,2.47
2019-02-09T18:26:29.134Z,2.27
2019-02-09T18:28:58.811Z,1.93
2019-02-09T18:31:28.289Z,2.20
2019-02-09T18:33:57.390Z,2.40
2019-02-09T18:36:26.388Z,2.53
2019-02-09T18:38:55.592Z,2.13
2019-02-09T18:41:25.057Z,2.90
2019-02-09T18:43:54.075Z,2.50
2019-02-09T18:46:23.114Z,3.00
2019-02-09T18:48:52.705Z,2.40
2019-02-09T18:51:21.746Z,2.40
2019-02-09T18:53:50.797Z,2.60
2019-02-09T18:56:19.903Z,3.17
2019-02-09T18:58:48.937Z,3.60
2019-02-09T19:01:18.123Z,3.37
2019-02-09T19:03:47.126Z,3.30
2019-02-09T19:06:16.223Z,3.47
2019-02-09T19:08:45.298Z,2.47
2019-02-09T19:11:14.454Z,3.47
2019-02-09T19:13:43.901Z,3.73
2019-02-09T19:16:12.888Z,4.23
2019-02-09T19:18:41.888Z,5.23
2019-02-09T19:21:13.402Z,4.93
2019-02-09T19:23:43.517Z,3.70
2019-02-09T19:26:12.588Z,2.97
2019-02-09T19:28:41.613Z,5.33
2019-02-09T19:31:10.693Z,3.37
2019-02-09T19:33:39.684Z,2.87
2019-02-09T19:36:08.750Z,2.27
2019-02-09T19:38:37.776Z,2.67
2019-02-09T19:41:06.928Z,3.37
2019-02-09T19:43:36.012Z,3.27
2019-02-09T19:46:05.356Z,2.63
2019-02-09T19:48:34.494Z,2.90
2019-02-09T19:51:03.573Z,2.83
2019-02-09T19:53:32.718Z,2.40
2019-02-09T19:56:01.721Z,2.73
2019-02-09T19:58:30.696Z,2.73
2019-02-09T20:00:59.746Z,5.77
2019-02-09T20:03:28.945Z,6.07
2019-02-09T20:05:59.054Z,3.40
2019-02-09T20:08:28.094Z,2.73
2019-02-09T20:10:57.399Z,2.77
2019-02-09T20:13:26.456Z,3.30
2019-02-09T20:15:55.694Z,4.20
2019-02-09T20:18:24.794Z,4.27
2019-02-09T20:20:55.467Z,3.37
2019-02-09T20:23:25.331Z,3.63
2019-02-09T20:25:54.832Z,2.87
2019-02-09T20:28:24.139Z,3.43
2019-02-09T20:30:53.435Z,2.80
2019-02-09T20:33:22.935Z,3.23
2019-02-09T20:35:53.411Z,4.47
2019-02-09T20:38:22.451Z,2.57
2019-02-09T20:40:55.002Z,3.53
2019-02-09T20:43:24.254Z,3.47
2019-02-09T20:45:54.181Z,2.33
2019-02-09T20:48:23.307Z,2.63
2019-02-09T20:50:52.496Z,3.00
2019-02-09T20:53:21.988Z,3.80
2019-02-09T20:55:52.162Z,3.03
2019-02-09T20:58:21.239Z,3.20
2019-02-09T21:00:50.304Z,2.97
2019-02-09T21:03:20.188Z,2.47
2019-02-09T21:05:50.538Z,3.67
2019-02-09T21:08:19.561Z,3.77
2019-02-09T21:10:51.338Z,2.60
2019-02-09T21:13:25.408Z,2.97
2019-02-09T21:15:54.584Z,2.37
2019-02-09T21:18:24.388Z,2.53
2019-02-09T21:20:53.582Z,2.40
2019-02-09T21:23:22.639Z,2.67
2019-02-09T21:25:51.950Z,2.40
2019-02-09T21:28:21.006Z,2.60
2019-02-09T21:30:50.096Z,2.83
2019-02-09T21:33:19.365Z,3.00
2019-02-09T21:35:49.364Z,2.87
2019-02-09T21:38:18.615Z,2.47
2019-02-09T21:40:48.053Z,2.97
2019-02-09T21:43:17.750Z,3.60
2019-02-09T21:45:47.211Z,3.37
2019-02-09T21:48:17.371Z,2.87
2019-02-09T21:50:47.507Z,3.17
2019-02-09T21:53:17.209Z,2.60
2019-02-09T21:55:47.772Z,2.70
2019-02-09T21:58:25.948Z,2.57
2019-02-09T22:00:57.881Z,3.07
2019-02-09T22:03:29.950Z,2.97
2019-02-09T22:06:00.595Z,3.90
2019-02-09T22:08:31.754Z,3.90
2019-02-09T22:11:03.895Z,3.67
2019-02-09T22:13:34.135Z,2.87
2019-02-09T22:16:06.042Z,3.97
2019-02-09T22:18:36.099Z,2.80
2019-02-09T22:21:06.119Z,2.13
2019-02-09T22:23:36.521Z,3.17
2019-02-09T22:26:12.920Z,3.50
2019-02-09T22:28:35.877Z,3.33
2019-02-09T22:31:05.037Z,2.50
2019-02-09T22:33:34.127Z,2.70
2019-02-09T22:36:04.095Z,2.33
2019-02-09T22:38:33.785Z,2.33
2019-02-09T22:41:03.066Z,2.70
2019-02-09T22:43:32.110Z,2.60
2019-02-09T22:46:03.463Z,2.53
2019-02-09T22:48:33.045Z,2.20
2019-02-09T22:51:02.423Z,2.30
2019-02-09T22:53:31.606Z,2.43
2019-02-09T22:56:00.846Z,2.00
2019-02-09T22:58:37.306Z,2.20
2019-02-09T23:01:32.209Z,2.63
2019-02-09T23:04:09.752Z,2.73
2019-02-09T23:06:54.273Z,3.40
2019-02-09T23:09:25.734Z,3.33
2019-02-09T23:11:55.046Z,2.50
2019-02-09T23:14:24.112Z,2.53
2019-02-09T23:16:53.095Z,3.63
2019-02-09T23:19:22.853Z,3.10
2019-02-09T23:21:52.384Z,2.20
2019-02-09T23:24:31.699Z,3.00
2019-02-09T23:27:40.304Z,2.90
2019-02-09T23:30:42.293Z,2.50
2019-02-09T23:33:13.565Z,2.30
2019-02-09T23:35:42.733Z,3.67
2019-02-09T23:38:13.667Z,2.87
2019-02-09T23:40:42.886Z,3.67
2019-02-09T23:43:12.088Z,2.63
2019-02-09T23:45:41.489Z,2.90
